Aeroporto :
LOGIN :

Iscrizione | Disclaimer

   EN    FR    IT 

 










Sommario :    VFR   VFR Marginale   IFR   IFR Intensivo   IFR Molto Intensivo
Visibilità : 
Base nubi : 
>= 8 km
>= 3000ft
5 / 8 km
1000 / 3000 ft
1500m / 5 km
500 / 1000 ft
800 / 1500m
200 / 500 ft
< 800m
< 200 ft
Simboli :   Temporali  Nebbia  Neve Forte  Precipitazioni Forti  Vento > 20 kt
SIGMETs :   Varie  Temporali  Ghiacco  Turbolenza  Onda orograficha  Ceneri Vulcaniche






- Altitudine del aeroporto : 172 ft
- Codice IATA : LPI


ESSL - Saab

ULTIMO METAR :
  • 272350Z AUTO 33005KT 9999 OVC005/// M02/M02 Q1000

METARs OBSOLETI :
  • 272320Z AUTO 36005KT 9999 OVC006/// M02/M02 Q0999
  • 272250Z AUTO 34003KT 9999 OVC007/// M02/M02 Q0999
  • 272220Z AUTO 34004KT 9999 OVC008/// M02/M02 Q0999
  • 272150Z 35004KT 9999 OVC009 M02/M02 Q0999 R29/410250
  • 272120Z 36003KT 9999 BKN008 M02/M02 Q0998 R29/490230

Previsioni scadute.



MetMap, La meteo Aeronautica in un colpo d'occhio ! - Copyright ORBIFLY Dicembre 2007 - Disclaimer

ORBIFLY MET'MAP TEAM :

Programmazione e sviluppo : Alexandra Zaïnal
Concezione : Baudouin d'Aumeries
Aiuto per la programmazione : Marc-Olivier Méhu
Supporto tecnico e logistico : Manuel Goepfert
Aiuto per la traduzione : Arnaldo La Scala

Contatto : metmap@orbifly.com




FONTI E CREDITI :

   NOAA